Atlantica — V7NB5 — position and weather

sailwx.info

Track history (hours):
 
Tides and Currents Weather Stations Pressure Air Temp Water Temp Dewpoint Dewpoint Depression Visibility Wind Speed Wind Dir Waves Ship Positions

Atlantica

Last reported at 2017-Jul-14 17:57 UTC. Time now 2017-Aug-20 10:01 UTC.
Position N 25°42' W 079°43'.
Warning: this ship's position is 36 days out of date.

Length 45 m; draft 2.9 m.

Type: Pleasure craft. MMSI: 538070397.

Date/timePositionNaut miles runAvg speedWind from/ knotsBaromVisibWave heightAir tempDewpointWater temp
2017-Jul-14 17:57N 25°42' W 079°43'614.3
2017-Jul-14 17:30N 25°41' W 079°49'714.5
2017-Jul-14 17:00N 25°40' W 079°58'613.1
2017-Jul-14 16:30N 25°39' W 080°05'510.0
2017-Jul-14 16:00N 25°39' W 080°10'4 8.7
2017-Jul-14 15:30N 25°41' W 080°14'1 2.0
2017-Jul-14 14:59N 25°41' W 080°15'0 0.0
2017-Jul-14 14:29N 25°41' W 080°15'0 0.0
2017-Jul-14 13:59N 25°41' W 080°15'  
2017-Jul-10 18:55N 25°47' W 080°11'0 0.0
2017-Jul-10 18:25N 25°47' W 080°11'0 0.0
2017-Jul-10 17:58N 25°47' W 080°11'0 0.0
2017-Jul-10 17:28N 25°47' W 080°11'1 1.4
2017-Jul-10 17:00N 25°47' W 080°11'4 7.7
2017-Jul-10 16:30N 25°43' W 080°12'3 6.7
2017-Jul-10 16:01N 25°41' W 080°15'0 0.7
2017-Jul-10 15:28N 25°41' W 080°15'0 0.0
2017-Jul-10 15:01N 25°41' W 080°15'0 0.0
2017-Jul-10 14:31N 25°41' W 080°15'0 0.0
2017-Jul-10 14:00N 25°41' W 080°15'  
2017-Jul-05 03:05N 25°41' W 080°15'0 0.0
2017-Jul-05 02:56N 25°41' W 080°15'0 0.2
2017-Jul-05 02:24N 25°41' W 080°16'2 4.7
2017-Jul-05 02:00N 25°41' W 080°13'4 8.0
2017-Jul-05 01:31N 25°44' W 080°11'0 0.4
2017-Jul-05 00:53N 25°45' W 080°11'0 0.0
2017-Jul-05 00:29N 25°45' W 080°11'0 0.0
2017-Jul-04 23:47N 25°45' W 080°11'0 0.0
2017-Jul-04 23:26N 25°45' W 080°11'0 0.0
2017-Jul-04 22:59N 25°45' W 080°11'0 0.0
2017-Jul-04 22:31N 25°45' W 080°11'0 0.3
2017-Jul-04 22:00N 25°44' W 080°11'2 4.4
2017-Jul-04 21:30N 25°43' W 080°12'2 4.0
2017-Jul-04 21:01N 25°41' W 080°14'1 2.9
2017-Jul-04 20:30N 25°41' W 080°15'0 0.5
2017-Jul-04 20:00N 25°41' W 080°15'0 0.0
2017-Jul-04 19:30N 25°41' W 080°15'0 0.0
2017-Jul-04 19:00N 25°41' W 080°15'0 0.0
2017-Jul-04 18:31N 25°41' W 080°15'0 0.0
2017-Jul-04 18:00N 25°41' W 080°15'  
Track history (hours):
 
Tides and Currents Weather Stations Pressure Air Temp Water Temp Dewpoint Dewpoint Depression Visibility Wind Speed Wind Dir Waves Ship Positions

Atlantica

Last reported at 2017-Jul-14 17:57 UTC. Time now 2017-Aug-20 10:01 UTC.
Position N 25°42' W 079°43'.
Warning: this ship's position is 36 days out of date.

Length 45 m; draft 2.9 m.

Type: Pleasure craft. MMSI: 538070397.

Date/timePositionNaut miles runAvg speedWind from/ knotsBaromVisibWave heightAir tempDewpointWater temp
2017-Jul-14 17:57N 25°42' W 079°43'614.3
2017-Jul-14 17:30N 25°41' W 079°49'714.5
2017-Jul-14 17:00N 25°40' W 079°58'613.1
2017-Jul-14 16:30N 25°39' W 080°05'510.0
2017-Jul-14 16:00N 25°39' W 080°10'4 8.7
2017-Jul-14 15:30N 25°41' W 080°14'1 2.0
2017-Jul-14 14:59N 25°41' W 080°15'0 0.0
2017-Jul-14 14:29N 25°41' W 080°15'0 0.0
2017-Jul-14 13:59N 25°41' W 080°15'  
2017-Jul-10 18:55N 25°47' W 080°11'0 0.0
2017-Jul-10 18:25N 25°47' W 080°11'0 0.0
2017-Jul-10 17:58N 25°47' W 080°11'0 0.0
2017-Jul-10 17:28N 25°47' W 080°11'1 1.4
2017-Jul-10 17:00N 25°47' W 080°11'4 7.7
2017-Jul-10 16:30N 25°43' W 080°12'3 6.7
2017-Jul-10 16:01N 25°41' W 080°15'0 0.7
2017-Jul-10 15:28N 25°41' W 080°15'0 0.0
2017-Jul-10 15:01N 25°41' W 080°15'0 0.0
2017-Jul-10 14:31N 25°41' W 080°15'0 0.0
2017-Jul-10 14:00N 25°41' W 080°15'  
2017-Jul-05 03:05N 25°41' W 080°15'0 0.0
2017-Jul-05 02:56N 25°41' W 080°15'0 0.2
2017-Jul-05 02:24N 25°41' W 080°16'2 4.7
2017-Jul-05 02:00N 25°41' W 080°13'4 8.0
2017-Jul-05 01:31N 25°44' W 080°11'0 0.4
2017-Jul-05 00:53N 25°45' W 080°11'0 0.0
2017-Jul-05 00:29N 25°45' W 080°11'0 0.0
2017-Jul-04 23:47N 25°45' W 080°11'0 0.0
2017-Jul-04 23:26N 25°45' W 080°11'0 0.0
2017-Jul-04 22:59N 25°45' W 080°11'0 0.0
2017-Jul-04 22:31N 25°45' W 080°11'0 0.3
2017-Jul-04 22:00N 25°44' W 080°11'2 4.4
2017-Jul-04 21:30N 25°43' W 080°12'2 4.0
2017-Jul-04 21:01N 25°41' W 080°14'1 2.9
2017-Jul-04 20:30N 25°41' W 080°15'0 0.5
2017-Jul-04 20:00N 25°41' W 080°15'0 0.0
2017-Jul-04 19:30N 25°41' W 080°15'0 0.0
2017-Jul-04 19:00N 25°41' W 080°15'0 0.0
2017-Jul-04 18:31N 25°41' W 080°15'0 0.0
2017-Jul-04 18:00N 25°41' W 080°15'  

Dump ship's entire track history